createdAt,value
2022-12-24T04:01:25.426Z,100.00
2022-12-24T04:04:36.881Z,100.00
2022-12-24T04:07:47.425Z,100.00
2022-12-24T04:10:57.439Z,100.00
2022-12-24T04:14:07.602Z,100.00
2022-12-24T04:17:19.265Z,100.00
2022-12-24T04:20:30.337Z,100.00
2022-12-24T04:23:42.623Z,100.00
2022-12-24T04:26:53.151Z,100.00
2022-12-24T04:30:04.005Z,100.00
2022-12-24T04:33:15.645Z,100.00
2022-12-24T04:36:25.814Z,100.00
2022-12-24T04:39:35.808Z,100.00
2022-12-24T04:42:45.836Z,100.00
2022-12-24T04:45:55.903Z,100.00
2022-12-24T04:49:07.149Z,100.00
2022-12-24T04:52:17.380Z,100.00
2022-12-24T04:55:27.272Z,100.00
2022-12-24T04:58:37.277Z,100.00
2022-12-24T05:01:47.403Z,100.00
2022-12-24T05:04:58.965Z,100.00
2022-12-24T05:08:09.154Z,100.00
2022-12-24T05:11:19.426Z,100.00
2022-12-24T05:14:29.722Z,100.00
2022-12-24T05:17:40.189Z,100.00
2022-12-24T05:20:52.067Z,100.00
2022-12-24T05:24:13.184Z,100.00
2022-12-24T05:27:23.561Z,100.00
2022-12-24T05:30:33.553Z,100.00
2022-12-24T05:33:43.516Z,100.00
2022-12-24T05:36:54.773Z,100.00
2022-12-24T05:40:05.318Z,100.00
2022-12-24T05:43:15.509Z,100.00
2022-12-24T05:46:26.767Z,100.00
2022-12-24T05:49:38.123Z,100.00
2022-12-24T05:52:49.434Z,100.00
2022-12-24T05:56:05.329Z,100.00
2022-12-24T05:59:15.558Z,100.00
2022-12-24T07:39:06.803Z,100.00
2022-12-24T07:42:17.006Z,100.00
2022-12-24T07:45:27.711Z,100.00
2022-12-24T07:48:38.134Z,100.00
2022-12-24T07:51:48.172Z,100.00
2022-12-24T07:54:59.548Z,100.00
2022-12-24T07:58:09.556Z,100.00
2022-12-24T08:01:19.699Z,100.00
2022-12-24T08:04:32.808Z,100.00
2022-12-24T08:07:42.808Z,100.00
2022-12-24T08:10:54.892Z,100.00
2022-12-24T08:14:04.957Z,100.00
2022-12-24T08:17:15.014Z,100.00
2022-12-24T08:20:25.133Z,100.00
2022-12-24T08:23:35.202Z,100.00
2022-12-24T08:26:46.733Z,100.00
2022-12-24T08:29:56.654Z,100.00
2022-12-24T08:33:06.647Z,100.00
2022-12-24T08:36:16.625Z,100.00
2022-12-24T08:39:26.720Z,100.00
2022-12-24T08:42:38.060Z,100.00
2022-12-24T08:45:49.356Z,100.00
2022-12-24T08:48:59.611Z,100.00
2022-12-24T08:52:09.899Z,100.00
2022-12-24T08:55:20.059Z,100.00
2022-12-24T08:58:32.506Z,100.00
2022-12-24T09:01:42.725Z,100.00
2022-12-24T09:04:52.890Z,100.00
2022-12-24T09:08:02.920Z,100.00
2022-12-24T09:11:15.652Z,99.50
2022-12-24T09:14:27.024Z,96.30
2022-12-24T09:17:37.544Z,95.56
2022-12-24T09:20:50.192Z,93.98
2022-12-24T09:24:05.589Z,93.25
2022-12-24T09:27:15.573Z,92.89
2022-12-24T09:30:27.157Z,93.67
2022-12-24T09:33:39.576Z,93.26
2022-12-24T09:36:49.614Z,93.42
2022-12-24T09:39:59.633Z,92.60
2022-12-24T09:43:17.167Z,92.64
2022-12-24T09:46:32.733Z,92.37
2022-12-24T09:49:46.543Z,91.60
2022-12-24T09:52:58.373Z,90.69
2022-12-24T09:56:14.213Z,90.98
2022-12-24T09:59:28.115Z,89.74
2022-12-24T10:02:39.896Z,88.57
2022-12-24T10:06:02.743Z,88.53
2022-12-24T10:09:21.064Z,87.92
2022-12-24T10:12:47.710Z,87.85
2022-12-24T10:16:04.535Z,88.02
2022-12-24T10:19:22.666Z,87.63
2022-12-24T10:22:42.314Z,86.31
2022-12-24T10:26:04.591Z,86.02
2022-12-24T10:29:19.332Z,85.39
2022-12-24T10:32:33.625Z,85.13
2022-12-24T10:35:50.039Z,84.67
2022-12-24T10:39:00.476Z,84.16
2022-12-24T10:42:15.003Z,85.06
2022-12-24T10:45:32.220Z,86.59
2022-12-24T10:48:50.641Z,87.93
2022-12-24T10:52:06.592Z,88.62
2022-12-24T10:55:24.776Z,89.68
2022-12-24T10:58:35.638Z,91.36
2022-12-24T11:01:49.011Z,91.24
2022-12-24T11:05:00.556Z,92.91
2022-12-24T11:08:18.195Z,93.42
2022-12-24T11:11:35.587Z,96.25
2022-12-24T11:14:45.887Z,97.25
2022-12-24T11:17:58.073Z,99.33
2022-12-24T11:21:09.189Z,99.74
2022-12-24T11:24:29.017Z,100.00
2022-12-24T11:27:44.616Z,100.00
2022-12-24T11:31:01.992Z,100.00
2022-12-24T11:34:24.552Z,100.00
2022-12-24T11:37:34.808Z,100.00
2022-12-24T11:40:48.890Z,100.00
2022-12-24T11:44:03.825Z,100.00
2022-12-24T11:47:15.411Z,100.00
2022-12-24T11:50:29.346Z,100.00
2022-12-24T11:53:45.956Z,100.00
2022-12-24T11:57:01.000Z,100.00
2022-12-24T12:00:12.729Z,100.00
2022-12-24T12:03:31.677Z,100.00
2022-12-24T12:06:47.745Z,100.00
2022-12-24T12:10:01.871Z,100.00
2022-12-24T12:13:16.553Z,100.00
2022-12-24T12:16:56.262Z,100.00
2022-12-24T12:20:14.491Z,100.00
2022-12-24T12:23:29.995Z,100.00
2022-12-24T12:26:44.187Z,100.00
2022-12-24T12:30:00.837Z,100.00
2022-12-24T12:33:21.987Z,100.00
2022-12-24T12:36:37.298Z,100.00
2022-12-24T12:39:47.615Z,100.00
2022-12-24T12:43:13.876Z,100.00
2022-12-24T12:46:33.770Z,100.00
2022-12-24T12:49:57.222Z,100.00
2022-12-24T12:53:30.568Z,100.00
2022-12-24T12:56:47.158Z,100.00
2022-12-24T13:00:02.843Z,100.00
2022-12-24T13:03:36.401Z,100.00
2022-12-24T13:07:04.137Z,100.00
2022-12-24T13:10:34.520Z,100.00
2022-12-24T13:14:01.469Z,100.00
2022-12-24T13:17:29.812Z,100.00
2022-12-24T13:20:46.903Z,100.00
2022-12-24T13:24:06.968Z,100.00
2022-12-24T13:27:20.147Z,100.00
2022-12-24T13:30:37.084Z,100.00
2022-12-24T13:33:49.650Z,100.00
2022-12-24T13:37:07.013Z,100.00
2022-12-24T13:40:23.304Z,100.00
2022-12-24T13:44:03.626Z,100.00
2022-12-24T13:47:25.272Z,100.00
2022-12-24T13:50:41.352Z,100.00
2022-12-24T13:54:00.073Z,100.00
2022-12-24T13:57:26.723Z,100.00
2022-12-24T14:00:44.813Z,100.00
2022-12-24T14:03:59.109Z,100.00
2022-12-24T14:07:11.491Z,100.00
2022-12-24T14:10:26.834Z,100.00
2022-12-24T14:13:52.554Z,100.00
2022-12-24T14:17:05.849Z,100.00
2022-12-24T14:20:17.055Z,100.00
2022-12-24T14:23:36.631Z,100.00
2022-12-24T14:27:16.264Z,100.00
2022-12-24T14:30:28.048Z,100.00
2022-12-24T14:33:52.030Z,100.00
2022-12-24T14:37:18.504Z,100.00
2022-12-24T14:41:10.497Z,100.00
2022-12-24T14:44:35.640Z,100.00
2022-12-24T14:47:53.330Z,100.00
2022-12-24T14:51:13.695Z,100.00
2022-12-24T14:54:36.359Z,100.00
2022-12-24T14:58:17.568Z,100.00
2022-12-24T15:01:45.496Z,100.00
2022-12-24T15:05:11.244Z,100.00
2022-12-24T15:08:27.089Z,100.00
2022-12-24T15:11:37.499Z,100.00
2022-12-24T15:14:47.489Z,100.00
2022-12-24T15:18:00.408Z,100.00
2022-12-24T15:21:19.193Z,100.00
2022-12-24T15:24:32.660Z,100.00
2022-12-24T15:27:42.703Z,100.00
2022-12-24T15:31:06.572Z,100.00
2022-12-24T15:34:43.835Z,100.00
2022-12-24T15:37:59.660Z,100.00
2022-12-24T15:41:25.478Z,100.00
2022-12-24T15:44:57.542Z,100.00
2022-12-24T15:48:11.459Z,100.00
2022-12-24T15:51:57.996Z,100.00
2022-12-24T15:55:27.126Z,100.00
2022-12-24T15:58:42.058Z,100.00
2022-12-24T16:01:52.719Z,100.00
2022-12-24T16:05:19.220Z,100.00
2022-12-24T16:08:33.956Z,100.00
2022-12-24T16:12:03.771Z,100.00
2022-12-24T16:15:18.692Z,100.00
2022-12-24T16:18:33.296Z,100.00
2022-12-24T16:21:44.137Z,100.00
2022-12-24T16:24:55.871Z,100.00
2022-12-24T16:28:16.139Z,100.00
2022-12-24T16:31:41.717Z,100.00
2022-12-24T16:34:53.023Z,100.00
2022-12-24T16:43:09.783Z,100.00
2022-12-24T16:49:52.703Z,100.00
2022-12-24T16:53:02.639Z,100.00
2022-12-24T16:56:12.370Z,100.00
2022-12-24T16:59:25.520Z,100.00
2022-12-24T17:02:35.442Z,100.00
2022-12-24T17:05:45.632Z,100.00
2022-12-24T17:08:55.377Z,100.00
2022-12-24T17:12:05.543Z,100.00
2022-12-24T17:15:16.673Z,100.00
2022-12-24T17:18:26.421Z,100.00
2022-12-24T17:21:37.181Z,100.00
2022-12-24T17:24:47.321Z,100.00
2022-12-24T17:27:56.957Z,100.00
2022-12-24T17:31:09.379Z,100.00
2022-12-24T17:34:19.094Z,100.00
2022-12-24T17:37:29.064Z,100.00
2022-12-24T17:40:41.327Z,100.00
2022-12-24T17:43:51.235Z,100.00
2022-12-24T17:47:05.199Z,100.00
2022-12-24T17:50:15.221Z,100.00
2022-12-24T17:53:25.060Z,100.00
2022-12-24T17:56:34.823Z,100.00
2022-12-24T17:59:44.716Z,100.00
2022-12-24T18:02:55.811Z,100.00
2022-12-24T18:06:07.119Z,100.00
2022-12-24T18:09:19.037Z,100.00
2022-12-24T18:12:28.929Z,100.00
2022-12-24T18:15:41.126Z,100.00
2022-12-24T18:18:53.328Z,100.00
2022-12-24T18:22:03.075Z,100.00
2022-12-24T18:25:15.767Z,100.00
2022-12-24T18:28:25.448Z,100.00
2022-12-24T18:31:35.695Z,100.00
2022-12-24T18:34:46.809Z,100.00
2022-12-24T18:37:56.696Z,100.00
2022-12-24T18:41:08.215Z,100.00
2022-12-24T18:44:24.260Z,100.00
2022-12-24T18:47:34.901Z,100.00
2022-12-24T18:50:58.275Z,100.00
2022-12-24T18:54:08.683Z,100.00
2022-12-24T18:57:18.648Z,100.00
2022-12-24T19:00:28.716Z,100.00
2022-12-24T19:03:38.517Z,100.00
2022-12-24T19:06:53.308Z,100.00
2022-12-24T19:10:03.597Z,100.00
2022-12-24T19:13:13.407Z,100.00
2022-12-24T19:16:23.315Z,100.00
2022-12-24T19:19:33.094Z,100.00
2022-12-24T19:22:44.204Z,100.00
2022-12-24T19:25:53.851Z,100.00
2022-12-24T19:29:03.503Z,100.00
2022-12-24T19:32:13.242Z,100.00
2022-12-24T19:35:22.940Z,100.00
2022-12-24T19:38:34.674Z,100.00
2022-12-24T19:41:44.323Z,100.00
2022-12-24T19:44:54.169Z,100.00
2022-12-24T19:48:04.478Z,100.00
2022-12-24T19:51:14.223Z,100.00
2022-12-24T19:54:25.222Z,100.00
2022-12-24T19:57:35.157Z,100.00
2022-12-24T20:00:44.881Z,100.00
2022-12-24T20:03:55.448Z,100.00
2022-12-24T20:07:05.380Z,100.00
2022-12-24T20:10:16.516Z,100.00
2022-12-24T20:13:26.494Z,100.00
2022-12-24T20:16:36.797Z,100.00
2022-12-24T20:19:49.823Z,100.00
2022-12-24T20:22:59.739Z,100.00
2022-12-24T20:26:14.169Z,100.00
2022-12-24T20:29:24.036Z,100.00
2022-12-24T20:32:33.800Z,100.00
2022-12-24T20:35:43.506Z,100.00
2022-12-24T20:38:53.546Z,100.00
2022-12-24T20:42:04.911Z,100.00
2022-12-24T20:45:14.758Z,100.00
2022-12-24T20:48:24.799Z,100.00
2022-12-24T20:51:34.699Z,100.00
2022-12-24T20:54:44.473Z,100.00
2022-12-24T20:57:55.517Z,100.00
2022-12-24T21:01:09.580Z,100.00
2022-12-24T21:04:19.620Z,100.00
2022-12-24T21:07:29.598Z,100.00
2022-12-24T21:10:40.256Z,100.00
2022-12-24T21:13:50.371Z,100.00
2022-12-24T21:17:00.332Z,100.00
2022-12-24T21:20:10.851Z,100.00
2022-12-24T21:23:20.564Z,100.00
2022-12-24T21:26:30.277Z,100.00
2022-12-24T21:29:41.368Z,100.00
2022-12-24T21:32:51.445Z,100.00
2022-12-24T21:36:01.222Z,100.00
2022-12-24T21:39:10.936Z,100.00
2022-12-24T21:42:20.892Z,100.00
2022-12-24T21:45:32.348Z,100.00
2022-12-24T21:48:53.157Z,100.00
2022-12-24T21:52:02.917Z,100.00
2022-12-24T21:55:12.584Z,100.00
2022-12-24T21:58:23.594Z,100.00
2022-12-24T22:01:34.706Z,100.00
2022-12-24T22:04:44.830Z,100.00
2022-12-24T22:08:06.427Z,100.00
2022-12-24T22:11:27.561Z,100.00
2022-12-24T22:14:37.316Z,100.00
2022-12-24T22:17:48.359Z,100.00
2022-12-24T22:20:58.044Z,100.00
2022-12-24T22:24:08.507Z,100.00
2022-12-24T22:27:18.355Z,100.00
2022-12-24T22:30:28.366Z,100.00
2022-12-24T22:33:39.309Z,100.00
2022-12-24T22:36:49.023Z,100.00
2022-12-24T22:39:58.686Z,100.00
2022-12-24T22:43:08.652Z,100.00
2022-12-24T22:46:18.860Z,100.00
2022-12-24T22:49:29.883Z,100.00
2022-12-24T22:52:39.914Z,100.00
2022-12-24T22:55:56.142Z,100.00
2022-12-24T22:59:05.835Z,100.00
2022-12-24T23:02:15.865Z,100.00
2022-12-24T23:05:28.596Z,100.00
2022-12-24T23:08:39.032Z,100.00
2022-12-24T23:11:48.852Z,100.00
2022-12-24T23:14:57.688Z,100.00
2022-12-24T23:18:08.597Z,100.00
2022-12-24T23:21:20.071Z,100.00
2022-12-24T23:24:30.490Z,100.00
2022-12-24T23:27:40.213Z,100.00
